createdAt,value
2022-07-29T00:03:17.585Z,69.44
2022-07-29T00:08:49.113Z,69.92
2022-07-29T00:14:21.357Z,68.63
2022-07-29T00:19:53.130Z,69.35
2022-07-29T00:25:24.690Z,70.52
2022-07-29T00:30:56.466Z,70.44
2022-07-29T00:36:28.834Z,70.63
2022-07-29T00:42:00.793Z,71.68
2022-07-29T00:47:32.481Z,71.96
2022-07-29T00:53:04.296Z,72.39
2022-07-29T00:58:36.033Z,70.79
2022-07-29T03:04:51.408Z,80.41
2022-07-29T03:10:23.196Z,81.96
2022-07-29T03:15:55.353Z,82.18
2022-07-29T03:21:26.855Z,82.88
2022-07-29T03:26:58.962Z,81.57
2022-07-29T03:32:30.378Z,83.13
2022-07-29T03:38:02.435Z,82.90
2022-07-29T03:43:34.697Z,81.96
2022-07-29T03:49:06.280Z,80.90
2022-07-29T03:54:38.250Z,81.02
2022-07-29T04:00:09.750Z,79.96
2022-07-29T04:02:32.946Z,80.28
2022-07-29T04:08:04.548Z,83.33
2022-07-29T04:13:36.792Z,83.62
2022-07-29T04:19:08.504Z,82.12
2022-07-29T04:24:44.036Z,84.33
2022-07-29T04:30:12.081Z,83.58
2022-07-29T04:35:47.125Z,82.31
2022-07-29T04:41:15.355Z,81.20
2022-07-29T04:46:47.331Z,79.60
2022-07-29T04:52:19.130Z,77.20
2022-07-29T04:57:50.845Z,74.27
2022-07-29T05:03:22.759Z,73.94
2022-07-29T05:08:54.558Z,72.64
2022-07-29T05:14:26.417Z,71.72
2022-07-29T05:19:58.233Z,71.20
2022-07-29T05:25:42.991Z,71.50
2022-07-29T05:31:01.748Z,71.17
2022-07-29T05:36:33.450Z,71.97
2022-07-29T05:42:05.162Z,71.18
2022-07-29T05:47:37.144Z,70.75
2022-07-29T05:53:19.421Z,69.91
2022-07-29T05:58:40.727Z,66.94
2022-07-29T06:04:12.449Z,63.48
2022-07-29T06:09:44.360Z,63.62
2022-07-29T06:15:16.211Z,60.17
2022-07-29T06:20:47.680Z,54.48
2022-07-29T06:26:19.385Z,54.49
2022-07-29T06:31:51.215Z,51.59
2022-07-29T06:37:23.447Z,49.52
2022-07-29T06:48:27.735Z,47.69
2022-07-29T06:54:02.663Z,45.98
2022-07-29T06:59:35.577Z,47.76
2022-07-29T07:05:03.198Z,44.74
2022-07-29T07:10:34.931Z,45.07
2022-07-29T07:16:06.590Z,43.93
2022-07-29T07:21:38.389Z,42.12
2022-07-29T07:27:10.189Z,40.52
2022-07-29T07:32:42.137Z,37.94
2022-07-29T07:38:13.663Z,38.21
2022-07-29T07:43:45.528Z,38.41
2022-07-29T07:49:17.637Z,35.68
2022-07-29T07:54:48.977Z,35.81
2022-07-29T08:00:23.274Z,35.57
2022-07-29T08:05:52.412Z,36.07
2022-07-29T08:11:24.002Z,36.49
2022-07-29T08:16:55.860Z,35.61
2022-07-29T08:22:27.555Z,35.33
2022-07-29T08:27:59.559Z,35.26
2022-07-29T08:33:31.586Z,34.60
2022-07-29T08:39:03.935Z,35.03
2022-07-29T08:44:35.862Z,33.66
2022-07-29T08:50:07.697Z,34.74
2022-07-29T08:55:39.726Z,35.69
2022-07-29T09:01:12.417Z,36.52
2022-07-29T09:06:43.529Z,38.17
2022-07-29T09:12:28.910Z,36.98
2022-07-29T09:17:46.943Z,38.14
2022-07-29T09:23:23.058Z,37.51
2022-07-29T09:28:50.629Z,39.17
2022-07-29T09:34:22.445Z,39.09
2022-07-29T09:39:54.185Z,38.62
2022-07-29T09:45:25.928Z,38.61
2022-07-29T09:50:57.791Z,38.11
2022-07-29T09:56:29.277Z,39.78
2022-07-29T10:02:01.082Z,40.38
2022-07-29T10:07:33.085Z,40.17
2022-07-29T10:13:09.001Z,40.66
2022-07-29T10:18:36.714Z,41.61
2022-07-29T10:24:15.109Z,41.87
2022-07-29T10:29:40.224Z,42.33
2022-07-29T10:35:12.225Z,42.17
2022-07-29T10:40:43.894Z,43.00
2022-07-29T10:51:47.963Z,43.16
2022-07-29T11:02:49.880Z,42.40
2022-07-29T11:08:21.017Z,41.78
2022-07-29T11:13:53.169Z,41.38
2022-07-29T11:19:29.885Z,41.24
2022-07-29T11:24:56.217Z,41.00
2022-07-29T11:30:35.000Z,42.96
2022-07-29T11:41:38.318Z,39.99
2022-07-29T11:47:10.284Z,39.25
2022-07-29T11:58:13.814Z,40.10
2022-07-29T12:03:46.157Z,39.70
2022-07-29T12:17:06.406Z,39.53
2022-07-29T12:22:37.188Z,40.09
2022-07-29T12:28:08.982Z,39.42
2022-07-29T12:33:40.514Z,39.71
2022-07-29T12:39:11.745Z,40.38
2022-07-29T12:55:46.926Z,38.07
2022-07-29T13:01:18.487Z,38.76
2022-07-29T13:12:23.078Z,39.76
2022-07-29T13:17:54.755Z,40.54
2022-07-29T13:23:26.322Z,41.45
2022-07-29T13:28:58.048Z,42.40
2022-07-29T13:34:30.107Z,42.53
2022-07-29T13:40:01.703Z,43.11
2022-07-29T13:45:33.896Z,43.44
2022-07-29T13:51:05.854Z,43.69
2022-07-29T13:56:38.079Z,43.90
2022-07-29T14:02:09.880Z,45.42
2022-07-29T14:13:24.326Z,46.49
2022-07-29T14:18:43.073Z,45.51
2022-07-29T14:24:18.069Z,45.28
2022-07-29T14:29:47.232Z,47.84
2022-07-29T14:35:19.152Z,46.90
2022-07-29T14:40:51.081Z,47.85
2022-07-29T14:46:22.700Z,49.46
2022-07-29T14:51:54.310Z,48.90
2022-07-29T14:57:25.919Z,48.41
2022-07-29T15:03:02.274Z,48.46
2022-07-29T15:08:29.425Z,49.59
2022-07-29T15:14:01.098Z,50.28
2022-07-29T15:25:03.114Z,52.64
2022-07-29T15:30:34.811Z,53.82
2022-07-29T15:36:06.676Z,54.25
2022-07-29T15:41:38.433Z,54.18
2022-07-29T15:47:10.018Z,53.27
2022-07-29T15:52:41.415Z,53.49
2022-07-29T15:58:13.052Z,52.91
2022-07-29T16:03:46.334Z,52.28
2022-07-29T16:09:16.293Z,53.30
2022-07-29T16:14:48.447Z,52.95
2022-07-29T16:20:20.120Z,53.28
2022-07-29T16:26:00.541Z,53.41
2022-07-29T16:31:23.351Z,54.06
2022-07-29T16:36:54.665Z,54.08
2022-07-29T16:42:45.555Z,54.65
2022-07-29T16:48:00.930Z,56.60
2022-07-29T16:53:30.244Z,58.10
2022-07-29T16:59:01.057Z,58.54
2022-07-29T17:04:32.875Z,58.43
2022-07-29T17:10:04.812Z,58.26
2022-07-29T17:15:36.546Z,58.54
2022-07-29T17:21:08.383Z,58.28
2022-07-29T17:26:40.251Z,57.90
2022-07-29T17:32:11.953Z,66.26
2022-07-29T17:37:43.876Z,68.86
2022-07-29T17:43:16.039Z,72.14
2022-07-29T17:48:47.654Z,75.00
2022-07-29T17:54:19.495Z,75.49
2022-07-29T17:59:51.173Z,76.62
2022-07-29T18:05:23.209Z,78.18
2022-07-29T18:10:54.695Z,77.80
2022-07-29T18:16:26.900Z,79.36
2022-07-29T18:22:03.534Z,76.81
2022-07-29T18:27:30.495Z,78.53
2022-07-29T18:33:20.837Z,76.28
2022-07-29T18:38:34.314Z,80.03
2022-07-29T18:44:05.957Z,78.25
2022-07-29T18:49:37.766Z,80.12
2022-07-29T18:55:09.615Z,80.93
2022-07-29T19:00:41.550Z,81.70
2022-07-29T19:06:13.280Z,80.63
2022-07-29T19:11:44.869Z,80.89
2022-07-29T19:17:16.883Z,79.63
2022-07-29T19:22:48.520Z,81.79
2022-07-29T19:28:20.245Z,82.04
2022-07-29T19:33:51.871Z,81.86
2022-07-29T19:39:35.367Z,81.62
2022-07-29T19:44:55.464Z,81.79
2022-07-29T19:50:27.590Z,81.78
2022-07-29T19:55:59.223Z,81.62
2022-07-29T20:01:31.190Z,82.58
2022-07-29T20:07:03.027Z,81.31
2022-07-29T20:12:34.756Z,81.72
2022-07-29T20:18:06.740Z,81.50
2022-07-29T20:23:38.514Z,81.90
2022-07-29T20:29:10.040Z,82.21
2022-07-29T20:34:41.968Z,82.58
2022-07-29T20:40:13.839Z,82.64
2022-07-29T20:45:45.736Z,82.31
2022-07-29T20:51:17.737Z,82.13
2022-07-29T20:56:49.657Z,82.10
2022-07-29T21:02:22.919Z,82.32
2022-07-29T21:07:58.083Z,83.29
2022-07-29T21:13:26.447Z,83.29
2022-07-29T21:18:58.047Z,83.76
2022-07-29T21:24:32.756Z,83.46
2022-07-29T21:30:05.220Z,84.01
2022-07-29T21:36:07.314Z,84.30
2022-07-29T21:41:09.104Z,84.76
2022-07-29T21:46:41.196Z,84.54
2022-07-29T21:52:13.195Z,84.88
2022-07-29T21:57:45.218Z,84.53
2022-07-29T22:03:17.228Z,84.84
2022-07-29T22:08:52.520Z,84.81
2022-07-29T22:14:24.410Z,84.94
2022-07-29T22:19:56.562Z,84.71
2022-07-29T22:25:28.474Z,85.30
2022-07-29T22:31:00.336Z,85.00
2022-07-29T22:36:32.360Z,84.92
2022-07-29T22:42:04.618Z,84.86
2022-07-29T22:53:08.270Z,86.24
2022-07-29T22:58:40.100Z,85.58
2022-07-29T23:04:12.143Z,86.94
2022-07-29T23:09:43.778Z,86.76
2022-07-29T23:15:15.632Z,87.45
2022-07-29T23:20:47.525Z,87.17
2022-07-29T23:26:19.603Z,87.19
2022-07-29T23:31:51.800Z,86.67
2022-07-29T23:37:23.653Z,87.39
2022-07-29T23:42:55.782Z,87.00
2022-07-29T23:48:27.672Z,87.13
2022-07-29T23:53:59.705Z,87.89
2022-07-29T23:59:31.817Z,87.60
